Time;durP1;ratioP1;P1;durP2;ratioP2;P2;SDS_P1;SDS_P2;PMS_P1;PMS_P2;Temp;Humidity;BMP_temperature;BMP_pressure;BME280_temperature;BME280_humidity;BME280_pressure;Samples;Min_cycle;Max_cycle;Signal;HPM_P1;HPM_P2
2021/09/07 00:00:12;;;;;;;10.33;9.33;;;;;22.90;101323.00;;;;2062448;28;20210;-55
2021/09/07 00:01:13;;;;;;;9.50;8.60;;;;;22.80;101314.00;;;;2062748;28;20307;-54
2021/09/07 00:02:13;;;;;;;9.73;8.93;;;;;22.80;101318.00;;;;2062878;28;20310;-56
2021/09/07 00:03:14;;;;;;;9.47;8.47;;;;;22.80;101310.00;;;;2062457;28;20219;-55
2021/09/07 00:04:14;;;;;;;9.20;8.40;;;;;22.80;101310.00;;;;2062499;28;20305;-54
2021/09/07 00:05:14;;;;;;;9.40;8.50;;;;;22.90;101305.00;;;;2062392;28;20699;-54
2021/09/07 00:06:17;;;;;;;10.43;9.43;;;;;22.80;101307.00;;;;2062759;28;20273;-56
2021/09/07 00:07:17;;;;;;;10.13;9.13;;;;;22.80;101299.00;;;;2062535;28;20301;-55
2021/09/07 00:08:18;;;;;;;9.70;8.73;;;;;22.80;101304.00;;;;2062093;28;20211;-56
2021/09/07 00:09:18;;;;;;;9.50;8.60;;;;;22.80;101306.00;;;;2060482;28;20302;-56
2021/09/07 00:10:18;;;;;;;10.33;9.43;;;;;22.90;101303.00;;;;2062726;28;20616;-56
2021/09/07 00:11:19;;;;;;;9.83;8.93;;;;;22.80;101306.00;;;;2062580;28;20223;-56
2021/09/07 00:12:20;;;;;;;9.47;8.67;;;;;22.80;101307.00;;;;2062514;28;20242;-54
2021/09/07 00:13:20;;;;;;;9.90;9.00;;;;;22.80;101301.00;;;;2062507;28;20222;-54
2021/09/07 00:14:20;;;;;;;10.37;9.37;;;;;22.80;101307.00;;;;2061926;28;20215;-56
2021/09/07 00:15:21;;;;;;;10.43;9.37;;;;;22.80;101306.00;;;;2061929;28;20289;-56
2021/09/07 00:16:21;;;;;;;9.47;8.67;;;;;22.80;101294.00;;;;2064295;28;20265;-55
2021/09/07 00:17:21;;;;;;;9.47;8.63;;;;;22.80;101313.00;;;;2070064;28;20229;-54
2021/09/07 00:18:22;;;;;;;10.30;9.30;;;;;22.80;101306.00;;;;2070200;28;20690;-54
2021/09/07 00:19:22;;;;;;;8.90;8.10;;;;;22.80;101306.00;;;;2068796;28;20217;-55
2021/09/07 00:20:23;;;;;;;9.50;8.60;;;;;22.80;101312.00;;;;2070724;28;20686;-55
2021/09/07 00:21:23;;;;;;;9.30;8.40;;;;;22.80;101313.00;;;;2070589;28;20660;-54
2021/09/07 00:22:24;;;;;;;9.80;8.90;;;;;22.80;101309.00;;;;2070374;28;20292;-56
2021/09/07 00:23:24;;;;;;;8.73;7.83;;;;;22.80;101311.00;;;;2070550;28;20990;-56
2021/09/07 00:24:24;;;;;;;8.70;7.90;;;;;22.80;101314.00;;;;2070628;28;20217;-54
2021/09/07 00:25:25;;;;;;;8.77;7.97;;;;;22.80;101311.00;;;;2070626;28;20249;-55
2021/09/07 00:26:25;;;;;;;9.03;8.23;;;;;22.80;101310.00;;;;2070405;28;20728;-56
2021/09/07 00:27:26;;;;;;;9.30;8.40;;;;;22.80;101306.00;;;;2070746;28;20218;-54
2021/09/07 00:28:26;;;;;;;9.20;8.30;;;;;22.80;101309.00;;;;2070678;28;20749;-55
2021/09/07 00:29:26;;;;;;;8.70;7.80;;;;;22.80;101298.00;;;;2069953;28;20264;-56
2021/09/07 00:30:27;;;;;;;9.47;8.57;;;;;22.80;101301.00;;;;2070767;28;20229;-56
2021/09/07 00:31:27;;;;;;;8.67;7.97;;;;;22.80;101301.00;;;;2070353;28;20206;-57
2021/09/07 00:32:28;;;;;;;9.53;8.53;;;;;22.80;101301.00;;;;2070685;28;20551;-55
2021/09/07 00:33:28;;;;;;;8.17;7.47;;;;;22.80;101296.00;;;;2070198;28;20222;-55
2021/09/07 00:34:28;;;;;;;8.13;7.43;;;;;22.80;101292.00;;;;2064648;28;20219;-55
2021/09/07 00:35:29;;;;;;;9.53;8.63;;;;;22.80;101295.00;;;;2062480;28;20540;-56
2021/09/07 00:36:29;;;;;;;8.83;8.03;;;;;22.80;101300.00;;;;2062408;28;20225;-56
2021/09/07 00:37:30;;;;;;;8.83;8.10;;;;;22.80;101288.00;;;;2062567;28;20318;-54
2021/09/07 00:38:30;;;;;;;9.00;8.10;;;;;22.80;101292.00;;;;2062670;28;20722;-55
2021/09/07 00:39:31;;;;;;;8.87;8.07;;;;;22.80;101291.00;;;;2060565;28;22185;-58
2021/09/07 00:40:31;;;;;;;9.27;8.47;;;;;22.80;101299.00;;;;2062615;28;20222;-58
2021/09/07 00:41:31;;;;;;;8.90;8.10;;;;;22.80;101297.00;;;;2062331;28;20738;-56
2021/09/07 00:42:34;;;;;;;8.90;8.10;;;;;22.80;101298.00;;;;2062548;28;20211;-57
2021/09/07 00:43:34;;;;;;;8.77;8.07;;;;;22.80;101304.00;;;;2062009;28;20233;-54
2021/09/07 00:44:35;;;;;;;7.97;7.27;;;;;22.80;101306.00;;;;2062479;28;20226;-54
2021/09/07 00:45:36;;;;;;;9.03;8.23;;;;;22.80;101308.00;;;;2062321;28;20313;-56
2021/09/07 00:46:36;;;;;;;9.20;8.40;;;;;22.80;101301.00;;;;2062438;28;20225;-56
2021/09/07 00:47:36;;;;;;;9.53;8.30;;;;;22.80;101303.00;;;;2062435;28;20211;-54
2021/09/07 00:48:37;;;;;;;9.07;8.27;;;;;22.80;101304.00;;;;2060770;28;20211;-56
2021/09/07 00:49:37;;;;;;;9.07;8.27;;;;;22.80;101300.00;;;;2061383;28;20223;-55
2021/09/07 00:50:37;;;;;;;8.90;8.10;;;;;22.80;101302.00;;;;2062623;28;20302;-57
2021/09/07 00:51:38;;;;;;;8.87;8.07;;;;;22.80;101300.00;;;;2062580;28;20927;-56
2021/09/07 00:52:39;;;;;;;8.00;7.30;;;;;22.80;101295.00;;;;2061316;28;20615;-56
2021/09/07 00:53:40;;;;;;;9.37;8.47;;;;;22.80;101284.00;;;;2061772;28;20219;-55
2021/09/07 00:54:41;;;;;;;8.15;7.45;;;;;22.80;101300.00;;;;2061592;28;21288;-55
2021/09/07 00:55:43;;;;;;;8.10;7.30;;;;;22.80;101291.00;;;;2053898;28;20223;-55
2021/09/07 00:56:44;;;;;;;8.10;7.30;;;;;22.80;101293.00;;;;2061675;28;20761;-55
2021/09/07 00:57:44;;;;;;;8.60;7.83;;;;;22.80;101294.00;;;;2061873;28;20223;-56
2021/09/07 00:58:44;;;;;;;8.13;7.37;;;;;22.80;101247.00;;;;2052847;28;20250;-54
2021/09/07 00:59:45;;;;;;;9.63;8.17;;;;;22.80;101292.00;;;;2061252;28;21043;-54
2021/09/07 01:00:45;;;;;;;8.27;7.53;;;;;22.80;101288.00;;;;2061770;28;20580;-55
2021/09/07 01:01:46;;;;;;;9.00;8.20;;;;;22.80;101287.00;;;;2062493;28;20215;-56
2021/09/07 01:02:46;;;;;;;8.33;7.60;;;;;22.80;101292.00;;;;2063301;28;20225;-55
2021/09/07 01:03:46;;;;;;;9.03;8.27;;;;;22.80;101287.00;;;;2063540;28;20252;-56
2021/09/07 01:04:47;;;;;;;7.70;7.00;;;;;22.80;101288.00;;;;2064037;28;20218;-55
2021/09/07 01:05:47;;;;;;;8.87;8.00;;;;;22.80;101291.00;;;;2064021;28;20226;-54
2021/09/07 01:06:48;;;;;;;8.00;7.30;;;;;22.80;101279.00;;;;2063941;28;20292;-55
2021/09/07 01:07:48;;;;;;;8.20;7.40;;;;;22.80;101291.00;;;;2064082;28;20203;-56
2021/09/07 01:08:48;;;;;;;8.57;7.77;;;;;22.70;101283.00;;;;2062335;28;20215;-56
2021/09/07 01:09:49;;;;;;;8.77;7.97;;;;;22.70;101280.00;;;;2063754;28;20230;-56
2021/09/07 01:10:49;;;;;;;8.50;7.70;;;;;22.70;101281.00;;;;2064111;28;20287;-54
2021/09/07 01:11:49;;;;;;;8.07;7.37;;;;;22.70;101282.00;;;;2063892;28;20329;-61
2021/09/07 01:12:50;;;;;;;7.80;7.10;;;;;22.80;101271.00;;;;2064055;28;20623;-55
2021/09/07 01:13:50;;;;;;;8.57;7.77;;;;;22.80;101274.00;;;;2063689;28;20203;-56
2021/09/07 01:14:50;;;;;;;9.13;8.23;;;;;22.80;101291.00;;;;2065281;28;20210;-56
2021/09/07 01:15:51;;;;;;;8.33;7.63;;;;;22.70;101291.00;;;;2063609;28;20215;-55
2021/09/07 01:16:51;;;;;;;7.17;6.57;;;;;22.70;101294.00;;;;2063841;28;20230;-55
2021/09/07 01:17:52;;;;;;;8.87;7.93;;;;;22.70;101289.00;;;;2063974;28;20302;-56
2021/09/07 01:18:52;;;;;;;7.63;6.93;;;;;22.70;101287.00;;;;2062924;28;20241;-59
2021/09/07 01:19:52;;;;;;;8.87;8.07;;;;;22.70;101278.00;;;;2063754;28;20222;-54
2021/09/07 01:20:53;;;;;;;8.40;7.70;;;;;22.70;101286.00;;;;2063938;28;20219;-54
2021/09/07 01:21:53;;;;;;;8.50;7.80;;;;;22.70;101287.00;;;;2063916;28;20230;-55
2021/09/07 01:22:53;;;;;;;7.80;7.10;;;;;22.70;101283.00;;;;2064104;28;20237;-55
2021/09/07 01:23:54;;;;;;;7.67;7.03;;;;;22.70;101282.00;;;;2063906;28;20265;-54
2021/09/07 01:24:54;;;;;;;7.90;7.20;;;;;22.70;101279.00;;;;2063833;28;20238;-55
2021/09/07 01:25:54;;;;;;;8.20;7.50;;;;;22.80;101284.00;;;;2063793;28;20219;-56
2021/09/07 01:26:55;;;;;;;7.97;7.33;;;;;22.70;101284.00;;;;2063409;28;20215;-56
2021/09/07 01:27:55;;;;;;;8.70;7.90;;;;;22.70;101284.00;;;;2064084;28;20281;-56
2021/09/07 01:28:55;;;;;;;8.17;7.53;;;;;22.70;101278.00;;;;2062883;28;20214;-55
2021/09/07 01:29:56;;;;;;;8.23;7.53;;;;;22.80;101278.00;;;;2063929;28;20223;-54
2021/09/07 01:30:56;;;;;;;8.87;8.07;;;;;22.70;101278.00;;;;2063685;28;20314;-54
2021/09/07 01:31:58;;;;;;;8.40;7.60;;;;;22.70;101276.00;;;;2063718;28;20691;-56
2021/09/07 01:32:59;;;;;;;7.95;7.25;;;;;22.70;101282.00;;;;2064108;28;22427;-54
2021/09/07 01:33:59;;;;;;;9.07;8.17;;;;;22.70;101279.00;;;;2063817;28;20302;-55
2021/09/07 01:34:59;;;;;;;7.67;6.97;;;;;22.70;101280.00;;;;2063946;28;20222;-56
2021/09/07 01:36:00;;;;;;;8.20;7.50;;;;;22.70;101280.00;;;;2062025;28;20214;-56
2021/09/07 01:37:00;;;;;;;7.77;6.97;;;;;22.70;101274.00;;;;2062776;28;20219;-56
2021/09/07 01:38:01;;;;;;;8.10;7.40;;;;;22.70;101278.00;;;;2063698;28;20215;-56
2021/09/07 01:39:01;;;;;;;8.00;7.30;;;;;22.70;101276.00;;;;2062779;28;20295;-56
2021/09/07 01:40:02;;;;;;;7.80;7.20;;;;;22.70;101277.00;;;;2063064;28;20239;-56
2021/09/07 01:41:02;;;;;;;8.43;7.73;;;;;22.70;101227.00;;;;2063529;28;20211;-56
2021/09/07 01:42:03;;;;;;;8.70;8.00;;;;;22.70;101278.00;;;;2062541;28;20225;-56
2021/09/07 01:43:04;;;;;;;7.97;7.28;;;;;22.70;101271.00;;;;2063100;28;20542;-56
2021/09/07 01:44:04;;;;;;;8.13;7.33;;;;;22.70;101273.00;;;;2063781;28;20322;-55
2021/09/07 01:45:05;;;;;;;7.80;7.10;;;;;22.70;101270.00;;;;2063671;28;20210;-54
2021/09/07 01:46:05;;;;;;;7.80;7.10;;;;;22.70;101275.00;;;;2063715;28;20219;-55
2021/09/07 01:47:08;;;;;;;8.20;7.50;;;;;22.70;101277.00;;;;2063660;28;20218;-54
2021/09/07 01:48:08;;;;;;;8.00;7.30;;;;;22.70;101275.00;;;;2063832;28;20298;-54
2021/09/07 01:49:11;;;;;;;7.90;7.20;;;;;22.70;101278.00;;;;2062126;28;20265;-54
2021/09/07 01:50:12;;;;;;;7.93;7.22;;;;;22.70;101274.00;;;;2061269;28;20225;-56
2021/09/07 01:51:12;;;;;;;7.47;6.87;;;;;22.70;101279.00;;;;2063627;28;20219;-57
2021/09/07 01:52:14;;;;;;;7.90;7.20;;;;;22.70;101277.00;;;;2063570;28;20219;-54
2021/09/07 01:53:14;;;;;;;8.23;7.43;;;;;22.70;101280.00;;;;2063718;28;20219;-55
2021/09/07 01:54:15;;;;;;;7.70;7.00;;;;;22.70;101272.00;;;;2071732;28;20213;-54
2021/09/07 01:55:15;;;;;;;8.20;7.40;;;;;22.70;101276.00;;;;2071613;28;20609;-54
2021/09/07 01:56:15;;;;;;;7.80;7.10;;;;;22.70;101282.00;;;;2071805;28;20686;-54
2021/09/07 01:57:16;;;;;;;8.10;7.40;;;;;22.70;101285.00;;;;2071563;28;20334;-55
2021/09/07 01:58:16;;;;;;;8.37;7.63;;;;;22.70;101283.00;;;;2071657;28;20210;-56
2021/09/07 01:59:17;;;;;;;7.90;7.10;;;;;22.70;101292.00;;;;2070205;28;20248;-54
2021/09/07 02:00:18;;;;;;;7.53;6.93;;;;;22.70;101284.00;;;;2071723;28;20682;-55
2021/09/07 02:01:18;;;;;;;7.80;7.20;;;;;22.70;101288.00;;;;2071488;28;20226;-55
2021/09/07 02:02:18;;;;;;;8.80;8.03;;;;;22.70;101280.00;;;;2071793;28;20583;-55
2021/09/07 02:03:19;;;;;;;8.30;7.60;;;;;22.70;101279.00;;;;2071823;28;20234;-56
2021/09/07 02:04:19;;;;;;;9.10;8.20;;;;;22.70;101281.00;;;;2071515;28;20260;-54
2021/09/07 02:05:19;;;;;;;7.53;6.93;;;;;22.70;101278.00;;;;2071645;28;20214;-55
2021/09/07 02:06:20;;;;;;;7.90;7.20;;;;;22.70;101274.00;;;;2071399;28;20210;-56
2021/09/07 02:07:20;;;;;;;7.77;7.10;;;;;22.70;101277.00;;;;2071073;28;20210;-55
2021/09/07 02:08:20;;;;;;;7.63;7.03;;;;;22.70;101277.00;;;;2071448;28;20609;-54
2021/09/07 02:09:21;;;;;;;7.70;7.00;;;;;22.70;101280.00;;;;2070296;28;20317;-56
2021/09/07 02:10:21;;;;;;;7.87;7.17;;;;;22.70;101281.00;;;;2071772;28;20210;-54
2021/09/07 02:11:21;;;;;;;7.50;6.80;;;;;22.70;101272.00;;;;2071618;28;20221;-55
2021/09/07 02:12:22;;;;;;;7.40;6.70;;;;;22.70;101275.00;;;;2071453;28;20714;-55
2021/09/07 02:13:22;;;;;;;8.07;7.37;;;;;22.70;101285.00;;;;2071243;28;20602;-54
2021/09/07 02:14:22;;;;;;;8.67;7.87;;;;;22.70;101273.00;;;;2069631;28;20225;-55
2021/09/07 02:15:23;;;;;;;7.30;6.70;;;;;22.70;101271.00;;;;2070684;28;20745;-56
2021/09/07 02:16:23;;;;;;;7.83;7.20;;;;;22.70;101269.00;;;;2071353;28;20249;-54
2021/09/07 02:17:24;;;;;;;7.50;6.90;;;;;22.70;101266.00;;;;2071673;28;20218;-55
2021/09/07 02:18:25;;;;;;;9.40;8.50;;;;;22.70;101267.00;;;;2070494;28;20297;-56
2021/09/07 02:19:25;;;;;;;7.47;6.80;;;;;22.70;101260.00;;;;2064736;28;20915;-56
2021/09/07 02:20:26;;;;;;;7.40;6.70;;;;;22.70;101264.00;;;;2062587;28;20225;-55
2021/09/07 02:21:26;;;;;;;7.70;7.00;;;;;22.70;101265.00;;;;2062944;28;20281;-55
2021/09/07 02:22:27;;;;;;;7.70;7.00;;;;;22.70;101263.00;;;;2062861;28;20226;-55
2021/09/07 02:23:27;;;;;;;7.13;6.60;;;;;22.70;101259.00;;;;2062924;28;20269;-55
2021/09/07 02:24:27;;;;;;;7.70;7.10;;;;;22.70;101263.00;;;;2062343;28;20226;-55
2021/09/07 02:25:28;;;;;;;7.73;7.03;;;;;22.70;101265.00;;;;2062580;28;20223;-55
2021/09/07 02:26:29;;;;;;;7.72;7.03;;;;;22.70;101257.00;;;;2062561;28;20215;-55
2021/09/07 02:27:29;;;;;;;7.63;6.93;;;;;22.70;101266.00;;;;2066079;28;20214;-55
2021/09/07 02:28:29;;;;;;;8.20;7.50;;;;;22.60;101266.00;;;;2070540;28;20207;-55
2021/09/07 02:29:30;;;;;;;7.17;6.50;;;;;22.70;101272.00;;;;2069664;28;20289;-53
2021/09/07 02:30:30;;;;;;;7.10;6.50;;;;;22.70;101269.00;;;;2070995;28;20223;-55
2021/09/07 02:31:31;;;;;;;6.73;6.13;;;;;22.70;101265.00;;;;2069648;28;20753;-56
2021/09/07 02:32:31;;;;;;;8.53;7.43;;;;;22.70;101266.00;;;;2070667;28;20221;-56
2021/09/07 02:33:31;;;;;;;7.00;6.40;;;;;22.70;101258.00;;;;2070218;28;20245;-57
2021/09/07 02:34:32;;;;;;;7.73;6.50;;;;;22.60;101264.00;;;;2070678;28;20217;-55
2021/09/07 02:35:33;;;;;;;7.27;6.50;;;;;22.70;101258.00;;;;2070858;28;20567;-53
2021/09/07 02:36:36;;;;;;;7.47;6.88;;;;;22.60;101264.00;;;;2070553;28;20207;-55
2021/09/07 02:37:37;;;;;;;7.50;6.60;;;;;22.60;101268.00;;;;2066090;28;20667;-55
2021/09/07 02:38:37;;;;;;;7.20;6.50;;;;;22.60;101259.00;;;;2063235;28;20308;-55
2021/09/07 02:39:37;;;;;;;7.67;6.90;;;;;22.60;101259.00;;;;2057269;28;20221;-54
2021/09/07 02:40:38;;;;;;;7.60;6.93;;;;;22.60;101262.00;;;;2063175;28;20215;-55
2021/09/07 02:41:38;;;;;;;6.77;6.17;;;;;22.60;101260.00;;;;2063455;28;20221;-54
2021/09/07 02:42:39;;;;;;;8.00;7.20;;;;;22.60;101263.00;;;;2063079;28;20309;-55
2021/09/07 02:43:39;;;;;;;7.07;6.47;;;;;22.60;101266.00;;;;2063454;28;21904;-56
2021/09/07 02:44:39;;;;;;;7.87;7.20;;;;;22.60;101252.00;;;;2061942;28;20301;-55
2021/09/07 02:45:40;;;;;;;7.20;6.60;;;;;22.60;101264.00;;;;2063439;28;20233;-56
2021/09/07 02:46:40;;;;;;;7.83;7.10;;;;;22.60;101261.00;;;;2063408;28;20687;-54
2021/09/07 02:47:40;;;;;;;8.03;7.23;;;;;22.60;101258.00;;;;2068418;28;20222;-55
2021/09/07 02:48:41;;;;;;;8.00;7.30;;;;;22.60;101260.00;;;;2070303;28;20272;-55
2021/09/07 02:49:41;;;;;;;7.83;7.03;;;;;22.60;101255.00;;;;2066515;28;20219;-56
2021/09/07 02:50:42;;;;;;;7.77;7.07;;;;;22.60;101254.00;;;;2065780;28;20834;-56
2021/09/07 02:51:47;;;;;;;7.27;6.67;;;;;22.60;101269.00;;;;2062431;28;21033;-55
2021/09/07 02:52:47;;;;;;;7.82;7.13;;;;;22.60;101255.00;;;;2059581;28;20294;-56
2021/09/07 02:53:48;;;;;;;7.60;6.60;;;;;22.60;101256.00;;;;2062236;28;20221;-56
2021/09/07 02:54:48;;;;;;;7.30;6.63;;;;;22.60;101265.00;;;;2062602;28;20273;-55
2021/09/07 02:55:48;;;;;;;7.40;6.80;;;;;22.60;101270.00;;;;2062765;28;20219;-55
2021/09/07 02:56:49;;;;;;;10.00;7.03;;;;;22.60;101258.00;;;;2062329;28;20225;-53
2021/09/07 02:57:49;;;;;;;7.73;7.03;;;;;22.60;101257.00;;;;2063006;28;20755;-55
2021/09/07 02:58:49;;;;;;;8.07;7.37;;;;;22.60;101261.00;;;;2061590;28;20618;-56
2021/09/07 02:59:50;;;;;;;7.53;6.93;;;;;22.60;101259.00;;;;2062435;28;20211;-57
2021/09/07 03:00:50;;;;;;;7.30;6.70;;;;;22.60;101266.00;;;;2062815;28;20211;-56
2021/09/07 03:01:51;;;;;;;7.73;7.00;;;;;22.60;101259.00;;;;2062979;28;20222;-56
2021/09/07 03:02:51;;;;;;;10.77;7.47;;;;;22.60;101263.00;;;;2063358;28;20231;-54
2021/09/07 03:03:52;;;;;;;7.30;6.60;;;;;22.60;101262.00;;;;2062832;28;20596;-54
2021/09/07 03:04:52;;;;;;;7.43;6.77;;;;;22.60;101257.00;;;;2063035;28;20450;-55
2021/09/07 03:05:52;;;;;;;6.80;6.30;;;;;22.60;101258.00;;;;2063215;28;20630;-55
2021/09/07 03:06:53;;;;;;;7.20;6.50;;;;;22.60;101265.00;;;;2063353;28;20214;-56
2021/09/07 03:07:54;;;;;;;7.13;6.43;;;;;22.60;101255.00;;;;2063205;28;20223;-55
2021/09/07 03:08:54;;;;;;;7.10;6.50;;;;;22.60;101246.00;;;;2061020;28;20454;-57
2021/09/07 03:09:55;;;;;;;8.30;7.10;;;;;22.60;101249.00;;;;2062584;28;20215;-56
2021/09/07 03:10:56;;;;;;;6.83;6.23;;;;;22.60;101253.00;;;;2062696;28;20211;-60
2021/09/07 03:11:56;;;;;;;7.50;6.80;;;;;22.60;101254.00;;;;2062961;28;20218;-55
2021/09/07 03:12:56;;;;;;;7.10;6.50;;;;;22.60;101259.00;;;;2063151;28;20302;-56
2021/09/07 03:13:57;;;;;;;7.50;6.90;;;;;22.60;101260.00;;;;2062691;28;20214;-55
2021/09/07 03:14:57;;;;;;;7.60;6.90;;;;;22.60;101259.00;;;;2062784;28;20578;-55
2021/09/07 03:15:57;;;;;;;7.93;7.23;;;;;22.60;101262.00;;;;2063124;28;20329;-54
2021/09/07 03:16:58;;;;;;;7.43;6.83;;;;;22.60;101259.00;;;;2062967;28;20207;-55
2021/09/07 03:17:58;;;;;;;8.20;7.40;;;;;22.60;101259.00;;;;2063159;28;20234;-55
2021/09/07 03:18:58;;;;;;;7.33;6.57;;;;;22.60;101255.00;;;;2062083;28;20710;-56
2021/09/07 03:19:59;;;;;;;8.23;7.40;;;;;22.60;101262.00;;;;2067697;28;20233;-55
2021/09/07 03:20:59;;;;;;;6.70;6.20;;;;;22.60;101260.00;;;;2063964;28;20202;-56
2021/09/07 03:21:59;;;;;;;6.43;5.83;;;;;22.60;101258.00;;;;2062680;28;20242;-55
2021/09/07 03:23:00;;;;;;;7.80;7.20;;;;;22.60;101255.00;;;;2063022;28;20206;-54
2021/09/07 03:24:00;;;;;;;7.63;6.93;;;;;22.60;101255.00;;;;2063096;28;20578;-55
2021/09/07 03:25:00;;;;;;;7.20;6.60;;;;;22.60;101260.00;;;;2062857;28;20203;-55
2021/09/07 03:26:01;;;;;;;8.30;7.60;;;;;22.60;101262.00;;;;2062869;28;20227;-57
2021/09/07 03:27:02;;;;;;;7.60;6.90;;;;;22.60;101248.00;;;;2062885;28;20245;-56
2021/09/07 03:28:03;;;;;;;7.18;6.53;;;;;22.60;101257.00;;;;2062309;28;20219;-55
2021/09/07 03:29:03;;;;;;;7.90;7.10;;;;;22.60;101254.00;;;;2061096;28;20956;-55
2021/09/07 03:30:04;;;;;;;7.80;6.97;;;;;22.60;101254.00;;;;2062954;28;20211;-56
2021/09/07 03:31:04;;;;;;;7.03;6.43;;;;;22.60;101268.00;;;;2062871;28;20761;-54
2021/09/07 03:32:05;;;;;;;7.77;7.00;;;;;22.60;101267.00;;;;2062913;28;20258;-55
2021/09/07 03:33:05;;;;;;;7.90;7.07;;;;;22.60;101267.00;;;;2062630;28;20222;-54
2021/09/07 03:34:06;;;;;;;7.50;6.80;;;;;22.60;101267.00;;;;2062939;28;21080;-55
2021/09/07 03:35:07;;;;;;;7.20;6.57;;;;;22.60;101266.00;;;;2062887;28;20239;-54
2021/09/07 03:36:07;;;;;;;7.68;6.97;;;;;22.30;101270.00;;;;2067617;28;20217;-56
2021/09/07 03:37:08;;;;;;;7.30;6.60;;;;;22.60;101279.00;;;;2070910;28;20217;-55
2021/09/07 03:38:08;;;;;;;7.77;7.10;;;;;22.60;101273.00;;;;2070996;28;20210;-56
2021/09/07 03:39:08;;;;;;;8.73;7.13;;;;;22.60;101264.00;;;;2069542;28;20225;-55
2021/09/07 03:40:10;;;;;;;8.30;7.00;;;;;22.60;101262.00;;;;2071024;28;20210;-56
2021/09/07 03:41:12;;;;;;;8.40;7.50;;;;;22.60;101261.00;;;;2070817;28;20685;-55
2021/09/07 03:42:12;;;;;;;7.72;6.63;;;;;22.60;101260.00;;;;2070467;28;20218;-55
2021/09/07 03:43:12;;;;;;;7.47;6.77;;;;;22.60;101262.00;;;;2071069;28;20345;-56
2021/09/07 03:44:13;;;;;;;7.57;6.87;;;;;22.70;101265.00;;;;2070733;28;20759;-55
2021/09/07 03:45:14;;;;;;;7.37;6.50;;;;;22.70;101257.00;;;;2070683;28;20214;-55
2021/09/07 03:46:15;;;;;;;7.50;6.80;;;;;22.70;101256.00;;;;2070618;28;20693;-55
2021/09/07 03:47:15;;;;;;;7.23;6.63;;;;;22.70;101253.00;;;;2070909;28;20218;-56
2021/09/07 03:48:15;;;;;;;7.13;6.53;;;;;22.70;101248.00;;;;2070915;28;20214;-56
2021/09/07 03:49:16;;;;;;;7.93;6.83;;;;;22.70;101250.00;;;;2068785;28;20217;-56
2021/09/07 03:50:16;;;;;;;7.10;6.30;;;;;22.70;101246.00;;;;2068742;28;20214;-56
2021/09/07 03:51:17;;;;;;;8.50;6.10;;;;;22.70;101247.00;;;;2061899;28;21120;-55
2021/09/07 03:52:17;;;;;;;7.37;6.67;;;;;22.70;101244.00;;;;2061722;28;21095;-56
2021/09/07 03:53:17;;;;;;;7.83;7.13;;;;;22.70;101255.00;;;;2059448;28;20215;-55
2021/09/07 03:54:18;;;;;;;8.47;7.40;;;;;22.80;101250.00;;;;2062366;28;20290;-55
2021/09/07 03:55:18;;;;;;;8.37;6.70;;;;;22.80;101252.00;;;;2062702;28;20206;-56
2021/09/07 03:56:18;;;;;;;6.60;6.00;;;;;22.70;101252.00;;;;2062692;28;20218;-55
2021/09/07 03:57:19;;;;;;;8.30;7.07;;;;;22.70;101256.00;;;;2062558;28;20218;-55
2021/09/07 03:58:19;;;;;;;7.93;6.60;;;;;22.70;101256.00;;;;2061518;28;20206;-55
2021/09/07 03:59:19;;;;;;;8.20;6.73;;;;;22.70;101254.00;;;;2061611;28;20214;-56
2021/09/07 04:00:21;;;;;;;7.63;6.77;;;;;22.70;101258.00;;;;2062715;28;20207;-56
2021/09/07 04:01:21;;;;;;;7.68;6.75;;;;;22.70;101249.00;;;;2062598;28;20687;-55
2021/09/07 04:02:21;;;;;;;7.50;6.80;;;;;22.70;101255.00;;;;2061945;28;20215;-55
2021/09/07 04:03:22;;;;;;;7.70;7.00;;;;;22.70;101258.00;;;;2062097;28;20210;-56
2021/09/07 04:04:25;;;;;;;8.53;6.60;;;;;22.70;101252.00;;;;2062564;28;20233;-56
2021/09/07 04:05:25;;;;;;;7.78;6.88;;;;;22.70;101253.00;;;;2062548;28;20226;-56
2021/09/07 04:06:25;;;;;;;7.67;6.47;;;;;22.60;101256.00;;;;2062632;28;20691;-55
2021/09/07 04:07:26;;;;;;;7.20;6.33;;;;;22.60;101254.00;;;;2062740;28;20273;-56
2021/09/07 04:08:26;;;;;;;6.83;5.97;;;;;22.70;101252.00;;;;2062287;28;20556;-55
2021/09/07 04:09:27;;;;;;;7.23;6.50;;;;;22.70;101256.00;;;;2061259;28;20219;-56
2021/09/07 04:10:27;;;;;;;9.63;7.30;;;;;22.70;101257.00;;;;2062906;28;21111;-56
2021/09/07 04:11:28;;;;;;;6.80;6.00;;;;;22.60;101262.00;;;;2061158;28;20297;-55
2021/09/07 04:12:28;;;;;;;7.23;6.53;;;;;22.60;101261.00;;;;2062085;28;20454;-56
2021/09/07 04:13:29;;;;;;;6.93;6.10;;;;;22.60;101261.00;;;;2062282;28;20219;-55
2021/09/07 04:14:29;;;;;;;7.73;7.03;;;;;22.60;101256.00;;;;2058684;28;20219;-55
2021/09/07 04:15:29;;;;;;;7.00;6.33;;;;;22.60;101266.00;;;;2061284;28;20225;-55
2021/09/07 04:16:30;;;;;;;8.40;6.97;;;;;22.60;101263.00;;;;2069155;28;20222;-55
2021/09/07 04:17:30;;;;;;;6.93;6.23;;;;;22.70;101266.00;;;;2069222;28;20363;-55
2021/09/07 04:18:30;;;;;;;6.70;6.10;;;;;22.60;101263.00;;;;2069859;28;21035;-55
2021/09/07 04:19:31;;;;;;;7.17;6.50;;;;;22.70;101262.00;;;;2067311;28;20233;-56
2021/09/07 04:20:32;;;;;;;6.90;6.03;;;;;22.60;101259.00;;;;2066466;28;20226;-56
2021/09/07 04:21:32;;;;;;;6.97;6.27;;;;;22.60;101266.00;;;;2063693;28;20524;-56
2021/09/07 04:22:32;;;;;;;7.70;7.00;;;;;22.60;101270.00;;;;2061445;28;20215;-56
2021/09/07 04:23:33;;;;;;;6.73;6.13;;;;;22.60;101265.00;;;;2061454;28;20226;-56
2021/09/07 04:24:33;;;;;;;7.93;6.63;;;;;22.60;101259.00;;;;2061406;28;20223;-56
2021/09/07 04:25:34;;;;;;;12.10;9.23;;;;;22.60;101269.00;;;;2057228;28;20223;-55
2021/09/07 04:26:34;;;;;;;10.83;9.83;;;;;22.60;101269.00;;;;2059348;28;20219;-55
2021/09/07 04:27:34;;;;;;;7.90;7.17;;;;;22.60;101260.00;;;;2061683;28;20227;-55
2021/09/07 04:28:35;;;;;;;18.13;14.50;;;;;22.60;101269.00;;;;2062364;28;20997;-56
2021/09/07 04:29:35;;;;;;;14.33;12.30;;;;;22.60;101266.00;;;;2061093;28;20218;-56
2021/09/07 04:30:35;;;;;;;19.80;17.70;;;;;22.70;101266.00;;;;2062320;28;20230;-56
2021/09/07 04:31:36;;;;;;;23.83;21.27;;;;;22.60;101264.00;;;;2068229;28;20257;-55
2021/09/07 04:32:36;;;;;;;26.33;21.63;;;;;22.60;101261.00;;;;2068936;28;20210;-56
2021/09/07 04:33:36;;;;;;;38.67;30.33;;;;;22.60;101254.00;;;;2070455;28;20226;-56
2021/09/07 04:34:37;;;;;;;32.70;24.47;;;;;22.60;101259.00;;;;2069766;28;20214;-56
2021/09/07 04:35:37;;;;;;;27.27;23.77;;;;;22.60;101249.00;;;;2069786;28;20218;-55
2021/09/07 04:36:37;;;;;;;32.87;26.90;;;;;22.60;101262.00;;;;2070386;28;20214;-55
2021/09/07 04:37:38;;;;;;;44.10;36.40;;;;;22.60;101252.00;;;;2069317;28;20237;-56
2021/09/07 04:38:38;;;;;;;51.87;39.90;;;;;22.60;101262.00;;;;2070081;28;20229;-56
2021/09/07 04:39:38;;;;;;;35.20;28.50;;;;;22.60;101256.00;;;;2068699;28;20217;-56
2021/09/07 04:40:39;;;;;;;52.07;41.47;;;;;22.60;101264.00;;;;2069851;28;20221;-55
2021/09/07 04:41:39;;;;;;;46.23;36.10;;;;;22.60;101262.00;;;;2069570;28;20710;-59
2021/09/07 04:42:40;;;;;;;54.57;44.50;;;;;22.60;101258.00;;;;2069901;28;20222;-58
2021/09/07 04:43:40;;;;;;;63.27;48.67;;;;;22.60;101267.00;;;;2069994;28;20264;-57
2021/09/07 04:44:40;;;;;;;44.43;38.80;;;;;22.60;101210.00;;;;2069170;28;20222;-56
2021/09/07 04:45:41;;;;;;;54.47;45.17;;;;;22.60;101257.00;;;;2070182;28;21321;-56
2021/09/07 04:46:41;;;;;;;53.80;43.63;;;;;22.60;101262.00;;;;2070199;28;20222;-56
2021/09/07 04:47:41;;;;;;;62.47;52.70;;;;;22.60;101264.00;;;;2069321;28;20241;-55
2021/09/07 04:48:42;;;;;;;65.13;51.80;;;;;22.60;101266.00;;;;2069546;28;20214;-55
2021/09/07 04:49:42;;;;;;;65.63;52.97;;;;;22.60;101268.00;;;;2068265;28;20229;-56
2021/09/07 04:50:42;;;;;;;56.23;47.50;;;;;22.70;101254.00;;;;2065421;28;20214;-55
2021/09/07 04:51:43;;;;;;;78.87;58.93;;;;;22.60;101262.00;;;;2061919;28;20726;-55
2021/09/07 04:52:43;;;;;;;57.87;48.33;;;;;22.60;101255.00;;;;2061837;28;20223;-56
2021/09/07 04:53:43;;;;;;;77.40;64.13;;;;;22.60;101252.00;;;;2062046;28;20233;-57
2021/09/07 04:54:44;;;;;;;84.27;63.47;;;;;22.60;101253.00;;;;2061573;28;20219;-57
2021/09/07 04:55:44;;;;;;;64.50;52.10;;;;;22.60;101251.00;;;;2061447;28;20671;-56
2021/09/07 04:56:45;;;;;;;85.63;67.40;;;;;22.60;101250.00;;;;2061605;28;20314;-56
2021/09/07 04:57:45;;;;;;;75.40;58.67;;;;;22.60;101252.00;;;;2061637;28;20257;-55